createdAt,value
2016-02-28T00:00:58.880Z,75.04
2016-02-28T00:01:58.866Z,75.04
2016-02-28T00:02:58.885Z,74.95
2016-02-28T00:03:58.857Z,75.23
2016-02-28T00:04:58.843Z,74.57
2016-02-28T00:05:58.846Z,74.85
2016-02-28T00:06:58.849Z,74.85
2016-02-28T00:07:58.679Z,74.95
2016-02-28T00:08:58.823Z,74.76
2016-02-28T00:09:58.826Z,74.57
2016-02-28T00:10:58.812Z,75.7
2016-02-28T00:11:58.816Z,75.23
2016-02-28T00:12:58.802Z,74.85
2016-02-28T00:13:58.821Z,74.47
2016-02-28T00:14:58.807Z,74.76
2016-02-28T00:15:58.795Z,75.04
2016-02-28T00:16:58.782Z,74.66
2016-02-28T00:17:58.769Z,74.76
2016-02-28T00:18:58.772Z,74.66
2016-02-28T00:20:00.655Z,74.66
2016-02-28T00:20:58.767Z,75.23
2016-02-28T00:21:59.317Z,74.57
2016-02-28T00:22:58.741Z,74.66
2016-02-28T00:23:59.509Z,75.42
2016-02-28T00:25:01.076Z,75.32
2016-02-28T00:26:01.453Z,75.13
2016-02-28T00:26:58.737Z,75.32
2016-02-28T00:27:59.551Z,75.42
2016-02-28T00:28:58.726Z,75.23
2016-02-28T00:29:58.978Z,75.32
2016-02-28T00:30:58.981Z,75.32
2016-02-28T00:32:01.859Z,75.23
2016-02-28T00:32:58.847Z,75.04
2016-02-28T00:34:02.631Z,74.95
2016-02-28T00:34:58.867Z,75.13
2016-02-28T00:35:58.667Z,75.23
2016-02-28T00:36:58.655Z,75.13
2016-02-28T00:37:58.657Z,75.32
2016-02-28T00:38:58.644Z,75.6
2016-02-28T00:39:58.647Z,75.23
2016-02-28T00:40:58.633Z,75.42
2016-02-28T00:41:58.636Z,75.42
2016-02-28T00:42:58.623Z,75.7
2016-02-28T00:43:58.610Z,75.42
2016-02-28T00:44:58.629Z,76.17
2016-02-28T00:45:58.616Z,75.51
2016-02-28T00:46:58.619Z,75.6
2016-02-28T00:48:01.715Z,76.26
2016-02-28T00:48:58.592Z,75.89
2016-02-28T00:49:58.579Z,75.79
2016-02-28T00:50:58.567Z,75.6
2016-02-28T00:51:58.570Z,75.79
2016-02-28T00:52:58.557Z,75.7
2016-02-28T00:53:58.559Z,75.89
2016-02-28T00:54:58.546Z,75.98
2016-02-28T00:55:58.564Z,75.98
2016-02-28T00:56:58.536Z,75.89
2016-02-28T00:57:58.539Z,76.07
2016-02-28T00:58:58.526Z,75.6
2016-02-28T00:59:58.512Z,75.89
2016-02-28T01:00:58.500Z,75.89
2016-02-28T01:01:58.518Z,75.7
2016-02-28T01:02:58.490Z,75.7
2016-02-28T01:03:58.492Z,75.6
2016-02-28T01:04:58.495Z,75.98
2016-02-28T01:05:58.467Z,75.51
2016-02-28T01:06:58.469Z,75.23
2016-02-28T01:07:58.472Z,75.32
2016-02-28T01:08:58.458Z,75.98
2016-02-28T01:09:58.446Z,75.98
2016-02-28T01:10:58.464Z,75.98
2016-02-28T01:11:58.452Z,75.85
2016-02-28T01:12:58.439Z,75.85
2016-02-28T01:13:58.425Z,75.95
2016-02-28T01:14:57.678Z,75.95
2016-02-28T01:15:58.415Z,75.85
2016-02-28T01:16:58.402Z,75.95
2016-02-28T01:17:58.421Z,75.57
2016-02-28T01:18:58.393Z,76.14
2016-02-28T01:19:58.395Z,76.32
2016-02-28T01:20:58.382Z,76.04
2016-02-28T01:21:58.384Z,75.85
2016-02-28T01:22:58.371Z,76.42
2016-02-28T01:23:58.374Z,76.51
2016-02-28T01:24:58.362Z,75.85
2016-02-28T01:25:58.364Z,76.51
2016-02-28T01:26:58.351Z,76.32
2016-02-28T01:27:58.337Z,76.32
2016-02-28T01:28:58.341Z,76.32
2016-02-28T01:29:58.328Z,76.61
2016-02-28T01:30:58.331Z,76.61
2016-02-28T01:31:58.318Z,76.79
2016-02-28T01:32:59.117Z,76.32
2016-02-28T01:33:58.292Z,76.61
2016-02-28T01:34:58.294Z,76.61
2016-02-28T01:35:58.297Z,76.42
2016-02-28T01:36:58.284Z,76.89
2016-02-28T01:37:58.319Z,76.89
2016-02-28T01:38:58.274Z,76.32
2016-02-28T01:39:58.261Z,76.79
2016-02-28T01:40:58.264Z,76.51
2016-02-28T01:41:58.250Z,76.79
2016-02-28T01:42:58.238Z,76.89
2016-02-28T01:43:58.241Z,76.42
2016-02-28T01:44:58.227Z,76.7
2016-02-28T01:45:58.215Z,76.98
2016-02-28T01:46:58.218Z,76.79
2016-02-28T01:47:58.204Z,76.7
2016-02-28T01:48:58.191Z,76.51
2016-02-28T01:49:58.210Z,76.7
2016-02-28T01:50:58.197Z,76.7
2016-02-28T01:51:58.199Z,76.61
2016-02-28T01:52:58.171Z,76.7
2016-02-28T01:53:58.158Z,76.7
2016-02-28T01:54:58.146Z,76.89
2016-02-28T01:55:58.179Z,76.51
2016-02-28T01:56:58.135Z,76.7
2016-02-28T01:57:58.137Z,76.89
2016-02-28T01:58:58.140Z,76.98
2016-02-28T01:59:58.128Z,76.42
2016-02-28T02:00:58.114Z,76.79
2016-02-28T02:01:58.101Z,76.7
2016-02-28T02:02:58.104Z,76.89
2016-02-28T02:03:58.092Z,76.79
2016-02-28T02:04:58.094Z,76.89
2016-02-28T02:05:58.081Z,76.89
2016-02-28T02:06:58.114Z,76.7
2016-02-28T02:07:58.070Z,76.7
2016-02-28T02:08:58.073Z,76.79
2016-02-28T02:09:58.061Z,76.51
2016-02-28T02:10:58.047Z,76.51
2016-02-28T02:11:58.035Z,76.7
2016-02-28T02:12:58.084Z,76.79
2016-02-28T02:13:58.040Z,76.23
2016-02-28T02:14:58.027Z,77.17
2016-02-28T02:15:58.030Z,76.89
2016-02-28T02:16:58.017Z,76.89
2016-02-28T02:17:58.004Z,76.7
2016-02-28T02:18:58.007Z,76.89
2016-02-28T02:19:57.994Z,77.08
2016-02-28T02:20:57.981Z,76.89
2016-02-28T02:21:57.983Z,77.08
2016-02-28T02:22:57.986Z,76.7
2016-02-28T02:23:57.957Z,76.89
2016-02-28T02:24:57.960Z,76.7
2016-02-28T02:25:57.948Z,76.79
2016-02-28T02:26:57.934Z,76.89
2016-02-28T02:27:57.937Z,76.89
2016-02-28T02:28:57.924Z,77.26
2016-02-28T02:29:57.912Z,77.08
2016-02-28T02:30:57.914Z,77.08
2016-02-28T02:31:58.026Z,77.17
2016-02-28T02:32:57.903Z,76.79
2016-02-28T02:33:57.906Z,76.51
2016-02-28T02:34:57.878Z,76.79
2016-02-28T02:35:57.881Z,77.26
2016-02-28T02:36:57.867Z,77.08
2016-02-28T02:37:57.870Z,76.7
2016-02-28T02:38:57.872Z,77.26
2016-02-28T02:39:57.844Z,77.26
2016-02-28T02:40:57.847Z,77.36
2016-02-28T02:41:57.834Z,77.36
2016-02-28T02:42:57.837Z,77.26
2016-02-28T02:43:57.824Z,76.79
2016-02-28T02:44:57.842Z,77.26
2016-02-28T02:45:57.813Z,76.79
2016-02-28T02:46:57.800Z,77.08
2016-02-28T02:47:57.788Z,77.08
2016-02-28T02:48:57.790Z,77.26
2016-02-28T02:49:57.777Z,77.26
2016-02-28T02:50:57.780Z,77.36
2016-02-28T02:51:57.767Z,77.55
2016-02-28T02:52:57.754Z,77.74
2016-02-28T02:53:57.757Z,77.55
2016-02-28T02:54:57.744Z,77.64
2016-02-28T02:55:57.746Z,77.45
2016-02-28T02:56:57.734Z,77.36
2016-02-28T02:57:57.721Z,77.36
2016-02-28T02:58:57.723Z,77.45
2016-02-28T02:59:57.726Z,77.64
2016-02-28T03:00:57.698Z,77.26
2016-02-28T03:01:57.700Z,77.36
2016-02-28T03:02:57.687Z,77.36
2016-02-28T03:03:57.690Z,77.26
2016-02-28T03:04:57.677Z,77.36
2016-02-28T03:05:57.664Z,77.36
2016-02-28T03:06:57.667Z,77.45
2016-02-28T03:07:57.654Z,77.26
2016-02-28T03:08:57.657Z,77.26
2016-02-28T03:09:57.644Z,77.08
2016-02-28T03:10:57.631Z,77.45
2016-02-28T03:11:57.649Z,77.26
2016-02-28T03:12:57.620Z,77.08
2016-02-28T03:13:57.608Z,77.36
2016-02-28T03:14:57.594Z,77.26
2016-02-28T03:15:57.598Z,77.36
2016-02-28T03:16:57.600Z,77.45
2016-02-28T03:17:57.588Z,77.36
2016-02-28T03:18:57.590Z,77.08
2016-02-28T03:19:57.577Z,76.98
2016-02-28T03:20:57.564Z,77.36
2016-02-28T03:21:57.551Z,77.26
2016-02-28T03:22:57.554Z,77.36
2016-02-28T03:23:57.557Z,77.17
2016-02-28T03:24:57.527Z,77.17
2016-02-28T03:25:57.530Z,77.08
2016-02-28T03:26:57.518Z,77.17
2016-02-28T03:27:57.521Z,77.17
2016-02-28T03:28:57.507Z,77.36
2016-02-28T03:29:57.510Z,77.36
2016-02-28T03:30:57.497Z,77.36
2016-02-28T03:31:57.484Z,77.36
2016-02-28T03:32:57.487Z,77.74
2016-02-28T03:33:57.473Z,77.74
2016-02-28T03:34:57.461Z,77.64
2016-02-28T03:35:57.464Z,77.64
2016-02-28T03:36:57.466Z,77.74
2016-02-28T03:37:57.437Z,77.83
2016-02-28T03:38:57.440Z,77.64
2016-02-28T03:39:57.427Z,77.74
2016-02-28T03:40:57.414Z,77.55
2016-02-28T03:41:57.417Z,77.74
2016-02-28T03:42:57.405Z,77.83
2016-02-28T03:43:57.407Z,77.55
2016-02-28T03:44:57.395Z,77.64
2016-02-28T03:45:57.396Z,77.83
2016-02-28T03:46:57.384Z,77.55
2016-02-28T03:47:57.372Z,77.83
2016-02-28T03:48:57.405Z,77.55
2016-02-28T03:49:57.361Z,77.55
2016-02-28T03:50:57.348Z,77.36
2016-02-28T03:51:57.335Z,77.45
2016-02-28T03:52:57.338Z,77.55
2016-02-28T03:53:57.325Z,77.45
2016-02-28T03:54:57.327Z,77.64
2016-02-28T03:55:57.330Z,77.64
2016-02-28T03:56:57.301Z,77.83
2016-02-28T03:57:57.304Z,77.64
2016-02-28T03:58:57.290Z,77.55
2016-02-28T03:59:57.278Z,77.74
2016-02-28T04:00:57.296Z,77.74
2016-02-28T04:01:57.284Z,77.64
2016-02-28T04:02:57.270Z,77.74
2016-02-28T04:03:57.263Z,77.64
2016-02-28T04:04:57.250Z,77.36
2016-02-28T04:05:57.253Z,77.74
2016-02-28T04:06:57.240Z,77.55
2016-02-28T04:07:57.227Z,77.36
2016-02-28T04:08:57.228Z,77.36
2016-02-28T04:09:57.216Z,77.64
2016-02-28T04:10:57.219Z,77.64
2016-02-28T04:11:57.206Z,78.12
2016-02-28T04:12:57.194Z,77.64
2016-02-28T04:13:57.181Z,77.45
2016-02-28T04:14:57.183Z,77.55
2016-02-28T04:15:57.186Z,77.45
2016-02-28T04:16:57.173Z,77.55
2016-02-28T04:17:57.160Z,77.55
2016-02-28T04:18:57.146Z,77.64
2016-02-28T04:19:57.150Z,77.45
2016-02-28T04:20:57.136Z,77.36
2016-02-28T04:21:57.124Z,77.55
2016-02-28T04:22:57.127Z,77.17
2016-02-28T04:23:57.129Z,77.55
2016-02-28T04:24:57.116Z,77.74
2016-02-28T04:25:57.103Z,77.74
2016-02-28T04:26:57.090Z,77.64
2016-02-28T04:27:57.093Z,77.36
2016-02-28T04:28:57.096Z,77.64
2016-02-28T04:29:57.080Z,77.64
2016-02-28T04:30:57.082Z,77.74
2016-02-28T04:31:57.070Z,77.64
2016-02-28T04:32:57.057Z,77.64
2016-02-28T04:33:57.059Z,77.64
2016-02-28T04:34:57.046Z,77.64
2016-02-28T04:35:57.049Z,77.74
2016-02-28T04:36:57.036Z,77.74
2016-02-28T04:37:57.023Z,77.64
2016-02-28T04:38:57.011Z,77.36
2016-02-28T04:39:57.013Z,77.64
2016-02-28T04:40:57.000Z,77.83
2016-02-28T04:41:57.019Z,77.45
2016-02-28T04:42:56.990Z,77.45
2016-02-28T04:43:56.992Z,77.55
2016-02-28T04:44:56.980Z,77.45
2016-02-28T04:45:56.983Z,77.55
2016-02-28T04:46:56.969Z,77.36
2016-02-28T04:47:56.972Z,77.83
2016-02-28T04:48:56.959Z,77.55
2016-02-28T04:49:56.977Z,77.55
2016-02-28T04:50:56.949Z,77.64
2016-02-28T04:51:56.952Z,77.55
2016-02-28T04:52:56.923Z,77.74
2016-02-28T04:53:56.926Z,77.64
2016-02-28T04:54:56.913Z,77.55
2016-02-28T04:55:56.932Z,77.26
2016-02-28T04:56:56.902Z,77.64
2016-02-28T04:57:56.937Z,77.64
2016-02-28T04:58:56.893Z,77.64
2016-02-28T04:59:56.895Z,77.64
2016-02-28T05:00:56.882Z,77.59
2016-02-28T05:01:56.931Z,77.64
2016-02-28T05:02:56.888Z,77.59
2016-02-28T05:03:56.859Z,77.64
2016-02-28T05:04:56.862Z,77.64
2016-02-28T05:05:56.849Z,77.55
2016-02-28T05:06:56.851Z,77.36
2016-02-28T05:07:56.854Z,77.17
2016-02-28T05:08:56.842Z,77.36
2016-02-28T05:09:56.828Z,77.74
2016-02-28T05:10:56.815Z,77.4
2016-02-28T05:11:56.818Z,77.4
2016-02-28T05:12:56.821Z,77.69
2016-02-28T05:13:56.792Z,77.78
2016-02-28T05:14:56.794Z,77.69
2016-02-28T05:15:56.782Z,77.4
2016-02-28T05:16:56.800Z,77.69
2016-02-28T05:17:56.787Z,77.69
2016-02-28T05:18:56.774Z,77.59
2016-02-28T05:19:56.761Z,77.78
2016-02-28T05:20:56.764Z,77.5
2016-02-28T05:21:56.752Z,77.4
2016-02-28T05:22:56.754Z,77.97
2016-02-28T05:23:56.757Z,77.59
2016-02-28T05:24:56.744Z,77.69
2016-02-28T05:25:56.730Z,77.5
2016-02-28T05:26:56.765Z,77.4
2016-02-28T05:27:56.720Z,77.69
2016-02-28T05:28:56.708Z,77.5
2016-02-28T05:29:56.710Z,77.36
2016-02-28T05:30:56.713Z,77.45
2016-02-28T05:31:56.699Z,77.55
2016-02-28T05:32:56.687Z,77.55
2016-02-28T05:33:56.674Z,77.55
2016-02-28T05:34:56.676Z,77.36
2016-02-28T05:35:56.664Z,77.64
2016-02-28T05:36:56.667Z,77.74
2016-02-28T05:37:56.670Z,77.45
2016-02-28T05:38:56.656Z,77.45
2016-02-28T05:39:56.628Z,77.64
2016-02-28T05:40:56.631Z,77.55
2016-02-28T05:41:56.634Z,77.45
2016-02-28T05:42:56.620Z,77.36
2016-02-28T05:43:56.623Z,77.26
2016-02-28T05:44:56.609Z,77.36
2016-02-28T05:45:56.612Z,77.45
2016-02-28T05:46:56.600Z,77.45
2016-02-28T05:47:56.586Z,77.36
2016-02-28T05:48:56.589Z,77.64
2016-02-28T05:49:56.577Z,77.64
2016-02-28T05:50:56.564Z,77.64
2016-02-28T05:51:56.566Z,77.55
2016-02-28T05:52:56.553Z,77.83
2016-02-28T05:53:56.556Z,78.31
2016-02-28T05:54:56.543Z,78.21
2016-02-28T05:55:56.546Z,78.31
2016-02-28T05:56:56.533Z,78.21
2016-02-28T05:57:56.519Z,78.12
2016-02-28T05:58:56.507Z,78.12
2016-02-28T05:59:56.510Z,78.4
2016-02-28T06:00:56.497Z,78.5
2016-02-28T06:01:56.515Z,78.5
2016-02-28T06:02:56.487Z,78.31
2016-02-28T06:03:56.473Z,78.4
2016-02-28T06:04:56.476Z,78.5
2016-02-28T06:05:56.463Z,78.59
2016-02-28T06:06:56.465Z,78.78
2016-02-28T06:07:56.453Z,78.59
2016-02-28T06:08:56.456Z,78.59
2016-02-28T06:09:56.443Z,78.68
2016-02-28T06:10:56.445Z,78.59
2016-02-28T06:11:56.432Z,78.4
2016-02-28T06:12:56.435Z,78.12
2016-02-28T06:13:56.422Z,78.21
2016-02-28T06:14:56.425Z,78.21
2016-02-28T06:15:56.411Z,78.31
2016-02-28T06:16:56.400Z,78.02
2016-02-28T06:17:56.402Z,78.21
2016-02-28T06:18:56.389Z,78.12
2016-02-28T06:19:56.376Z,78.12
2016-02-28T06:20:56.378Z,78.02
2016-02-28T06:21:56.366Z,78.21
2016-02-28T06:22:56.368Z,78.21
2016-02-28T06:23:56.339Z,78.12
2016-02-28T06:24:56.358Z,78.02
2016-02-28T06:25:56.329Z,77.26
2016-02-28T06:26:56.332Z,77.45
2016-02-28T06:27:56.319Z,77.55
2016-02-28T06:28:56.322Z,77.36
2016-02-28T06:29:56.371Z,77.36
2016-02-28T06:30:56.296Z,77.45
2016-02-28T06:31:56.299Z,77.64
2016-02-28T06:32:56.286Z,77.55
2016-02-28T06:33:56.288Z,77.74
2016-02-28T06:34:56.276Z,78.21
2016-02-28T06:35:56.279Z,77.74
2016-02-28T06:36:56.266Z,77.17
2016-02-28T06:37:56.268Z,77.64
2016-02-28T06:38:56.255Z,77.74
2016-02-28T06:39:56.289Z,77.55
2016-02-28T06:40:56.229Z,77.74
2016-02-28T06:41:56.248Z,77.74
2016-02-28T06:42:56.219Z,77.74
2016-02-28T06:43:56.253Z,77.64
2016-02-28T06:44:56.209Z,77.74
2016-02-28T06:45:56.196Z,77.74
2016-02-28T06:46:56.198Z,77.83
2016-02-28T06:47:56.186Z,77.64
2016-02-28T06:48:56.188Z,77.74
2016-02-28T06:49:56.175Z,77.55
2016-02-28T06:50:56.178Z,77.83
2016-02-28T06:51:56.164Z,77.55
2016-02-28T06:52:56.168Z,77.83
2016-02-28T06:53:56.155Z,77.64
2016-02-28T06:54:56.142Z,77.55
2016-02-28T06:55:56.175Z,77.55
2016-02-28T06:56:55.413Z,77.55
2016-02-28T06:57:56.135Z,77.64
2016-02-28T06:58:56.122Z,77.5
2016-02-28T06:59:56.108Z,77.26
2016-02-28T07:00:56.111Z,77.45
2016-02-28T07:01:56.130Z,77.5
2016-02-28T07:02:56.117Z,77.59
2016-02-28T07:03:56.104Z,77.5
2016-02-28T07:04:56.091Z,77.59
2016-02-28T07:05:56.094Z,77.4
2016-02-28T07:06:56.080Z,77.69
2016-02-28T07:07:56.068Z,77.87
2016-02-28T07:08:56.070Z,77.69
2016-02-28T07:09:56.057Z,77.59
2016-02-28T07:10:56.060Z,77.87
2016-02-28T07:11:56.047Z,77.97
2016-02-28T07:12:56.050Z,77.59
2016-02-28T07:13:56.053Z,77.5
2016-02-28T07:14:56.024Z,77.69
2016-02-28T07:15:56.026Z,77.69
2016-02-28T07:16:56.060Z,77.5
2016-02-28T07:17:56.016Z,77.59
2016-02-28T07:18:56.003Z,77.78
2016-02-28T07:19:56.005Z,77.4
2016-02-28T07:20:55.992Z,77.4
2016-02-28T07:21:55.995Z,77.5
2016-02-28T07:22:55.983Z,77.4
2016-02-28T07:23:55.970Z,77.12
2016-02-28T07:24:55.988Z,77.21
2016-02-28T07:25:55.960Z,77.02
2016-02-28T07:26:56.025Z,77.59
2016-02-28T07:27:55.950Z,77.21
2016-02-28T07:28:55.952Z,76.93
2016-02-28T07:29:55.939Z,77.12
2016-02-28T07:30:55.941Z,77.31
2016-02-28T07:31:55.929Z,77.31
2016-02-28T07:32:55.932Z,77.31
2016-02-28T07:33:55.918Z,77.21
2016-02-28T07:34:55.905Z,77.06
2016-02-28T07:35:55.908Z,76.68
2016-02-28T07:36:55.911Z,76.78
2016-02-28T07:37:55.960Z,77.34
2016-02-28T07:38:55.901Z,76.87
2016-02-28T07:39:55.904Z,76.97
2016-02-28T07:40:55.875Z,76.78
2016-02-28T07:41:55.940Z,76.59
2016-02-28T07:42:55.880Z,76.87
2016-02-28T07:43:55.884Z,76.97
2016-02-28T07:44:55.871Z,76.68
2016-02-28T07:45:55.857Z,76.4
2016-02-28T07:46:55.875Z,76.5
2016-02-28T07:47:55.848Z,76.68
2016-02-28T07:48:55.841Z,76.97
2016-02-28T07:49:55.815Z,76.97
2016-02-28T07:50:55.806Z,76.4
2016-02-28T07:51:55.797Z,76.59
2016-02-28T07:52:55.818Z,76.4
2016-02-28T07:53:55.768Z,76.4
2016-02-28T07:54:55.751Z,76.78
2016-02-28T07:55:55.751Z,76.5
2016-02-28T07:56:55.733Z,76.12
2016-02-28T07:57:55.731Z,76.12
2016-02-28T07:58:55.732Z,76.02
2016-02-28T07:59:55.718Z,75.93
2016-02-28T08:00:55.704Z,75.93
2016-02-28T08:01:55.705Z,76.12
2016-02-28T08:02:55.706Z,76.31
2016-02-28T08:03:55.692Z,75.64
2016-02-28T08:04:55.694Z,76.02
2016-02-28T08:05:55.681Z,76.31
2016-02-28T08:06:55.683Z,75.83
2016-02-28T08:07:55.700Z,75.93
2016-02-28T08:08:55.673Z,76.02
2016-02-28T08:09:55.675Z,76.12
2016-02-28T08:10:55.661Z,76.15
2016-02-28T08:11:55.663Z,75.49
2016-02-28T08:12:55.651Z,75.68
2016-02-28T08:13:55.653Z,75.78
2016-02-28T08:14:55.656Z,75.21
2016-02-28T08:15:55.659Z,75.49
2016-02-28T08:16:55.676Z,74.93
2016-02-28T08:17:55.633Z,75.21
2016-02-28T08:18:55.635Z,74.74
2016-02-28T08:19:55.638Z,75.59
2016-02-28T08:20:55.655Z,75.02
2016-02-28T08:21:55.628Z,74.93
2016-02-28T08:22:55.647Z,75.12
2016-02-28T08:23:55.617Z,75.49
2016-02-28T08:24:55.605Z,74.45
2016-02-28T08:25:55.607Z,74.36
2016-02-28T08:26:55.594Z,74.45
2016-02-28T08:27:55.627Z,73.79
2016-02-28T08:28:55.584Z,73.69
2016-02-28T08:29:55.586Z,74.07
2016-02-28T08:30:55.589Z,74.07
2016-02-28T08:31:55.576Z,73.79
2016-02-28T08:32:55.579Z,74.45
2016-02-28T08:33:55.565Z,74.17
2016-02-28T08:34:54.866Z,74.36
2016-02-28T08:35:55.572Z,73.88
2016-02-28T08:36:55.574Z,73.79
2016-02-28T08:37:55.562Z,74.26
2016-02-28T08:38:55.564Z,73.98
2016-02-28T08:39:55.598Z,74.17
2016-02-28T08:40:55.584Z,73.88
2016-02-28T08:41:55.540Z,74.45
2016-02-28T08:42:55.528Z,73.98
2016-02-28T08:43:55.546Z,73.98
2016-02-28T08:44:55.533Z,74.36
2016-02-28T08:45:55.536Z,73.98
2016-02-28T08:46:55.538Z,73.98
2016-02-28T08:47:55.526Z,73.92
2016-02-28T08:48:55.529Z,74.26
2016-02-28T08:49:55.562Z,73.98
2016-02-28T08:50:55.518Z,74.21
2016-02-28T08:51:55.505Z,74.02
2016-02-28T08:52:55.773Z,73.92
2016-02-28T08:53:56.010Z,74.21
2016-02-28T08:55:09.607Z,73.73
2016-02-28T08:55:55.500Z,73.73
2016-02-28T08:56:55.488Z,73.92
2016-02-28T08:57:55.616Z,73.73
2016-02-28T08:58:55.508Z,73.92
2016-02-28T08:59:55.496Z,73.73
2016-02-28T09:00:55.529Z,73.64
2016-02-28T09:01:55.487Z,73.73
2016-02-28T09:02:55.473Z,73.54
2016-02-28T09:03:55.477Z,73.64
2016-02-28T09:04:55.479Z,72.78
2016-02-28T09:05:55.472Z,72.69
2016-02-28T09:06:55.459Z,73.35
2016-02-28T09:07:55.461Z,73.54
2016-02-28T09:08:55.464Z,73.54
2016-02-28T09:09:55.466Z,73.35
2016-02-28T09:10:55.453Z,73.35
2016-02-28T09:11:55.441Z,73.45
2016-02-28T09:12:55.444Z,72.41
2016-02-28T09:13:55.461Z,72.97
2016-02-28T09:14:55.464Z,72.69
2016-02-28T09:15:55.467Z,72.88
2016-02-28T09:16:55.438Z,72.97
2016-02-28T09:17:55.441Z,72.88
2016-02-28T09:18:55.428Z,72.6
2016-02-28T09:19:55.431Z,72.88
2016-02-28T09:20:55.433Z,71.84
2016-02-28T09:21:55.421Z,72.97
2016-02-28T09:22:55.424Z,72.69
2016-02-28T09:23:55.426Z,72.22
2016-02-28T09:24:55.429Z,72.69
2016-02-28T09:25:55.415Z,72.5
2016-02-28T09:26:55.419Z,72.88
2016-02-28T09:27:55.421Z,73.07
2016-02-28T09:28:55.409Z,72.6
2016-02-28T09:29:55.412Z,72.97
2016-02-28T09:30:55.414Z,71.93
2016-02-28T09:31:55.401Z,71.84
2016-02-28T09:32:55.419Z,72.22
2016-02-28T09:33:55.391Z,72.97
2016-02-28T09:34:55.393Z,72.6
2016-02-28T09:35:55.245Z,72.97
2016-02-28T09:36:55.427Z,72.6
2016-02-28T09:37:55.385Z,72.88
2016-02-28T09:38:55.517Z,72.97
2016-02-28T09:39:55.411Z,72.69
2016-02-28T09:40:56.601Z,72.97
2016-02-28T09:41:55.354Z,72.5
2016-02-28T09:42:55.357Z,72.97
2016-02-28T09:43:55.343Z,71.93
2016-02-28T09:44:55.346Z,72.53
2016-02-28T09:45:55.412Z,72.41
2016-02-28T09:46:55.351Z,72.12
2016-02-28T09:47:55.338Z,72.53
2016-02-28T09:48:55.351Z,72.25
2016-02-28T09:49:55.448Z,72.41
2016-02-28T09:50:55.559Z,72.53
2016-02-28T09:51:55.328Z,72.44
2016-02-28T09:52:55.331Z,72.73
2016-02-28T09:53:55.333Z,71.88
2016-02-28T09:54:55.336Z,71.97
2016-02-28T09:55:55.338Z,71.97
2016-02-28T09:56:55.310Z,72.06
2016-02-28T09:57:55.313Z,72.16
2016-02-28T09:58:55.315Z,72.06
2016-02-28T09:59:55.319Z,72.53
2016-02-28T10:00:55.336Z,71.4
2016-02-28T10:01:55.933Z,71.78
2016-02-28T10:02:55.347Z,71.97
2016-02-28T10:03:55.303Z,71.97
2016-02-28T10:04:55.322Z,71.59
2016-02-28T10:05:55.183Z,71.59
2016-02-28T10:06:55.303Z,71.21
2016-02-28T10:07:55.289Z,70.93
2016-02-28T10:08:55.386Z,70.17
2016-02-28T10:09:55.295Z,70.64
2016-02-28T10:10:55.282Z,70.07
2016-02-28T10:11:55.285Z,71.34
2016-02-28T10:12:55.287Z,71.25
2016-02-28T10:13:55.275Z,71.34
2016-02-28T10:14:55.293Z,71.06
2016-02-28T10:15:55.264Z,70.97
2016-02-28T10:16:55.267Z,71.06
2016-02-28T10:17:55.285Z,70.97
2016-02-28T10:18:55.506Z,70.87
2016-02-28T10:19:55.463Z,70.3
2016-02-28T10:20:55.434Z,70.49
2016-02-28T10:21:55.265Z,70.2
2016-02-28T10:22:55.267Z,70.11
2016-02-28T10:23:55.645Z,70.2
2016-02-28T10:24:55.257Z,70.11
2016-02-28T10:25:55.260Z,70.2
2016-02-28T10:26:55.262Z,69.64
2016-02-28T10:27:55.249Z,69.45
2016-02-28T10:28:55.252Z,68.88
2016-02-28T10:29:55.271Z,69.54
2016-02-28T10:30:55.258Z,68.73
2016-02-28T10:31:55.354Z,68.59
2016-02-28T10:32:55.279Z,68.91
2016-02-28T10:33:55.251Z,69.01
2016-02-28T10:34:55.268Z,68.82
2016-02-28T10:35:55.271Z,68.25
2016-02-28T10:36:55.242Z,68.82
2016-02-28T10:37:55.245Z,68.06
2016-02-28T10:38:55.248Z,67.3
2016-02-28T10:39:55.235Z,67.49
2016-02-28T10:40:55.238Z,67.68
2016-02-28T10:41:55.257Z,67.96
2016-02-28T10:42:55.243Z,68.06
2016-02-28T10:43:55.293Z,67.02
2016-02-28T10:44:55.295Z,67.3
2016-02-28T10:45:55.548Z,66.45
2016-02-28T10:46:55.238Z,67.02
2016-02-28T10:47:55.272Z,66.83
2016-02-28T10:48:55.228Z,67.11
2016-02-28T10:49:55.387Z,66.83
2016-02-28T10:50:55.453Z,66.83
2016-02-28T10:51:55.267Z,66.93
2016-02-28T10:52:55.239Z,67.4
2016-02-28T10:53:55.241Z,66.45
2016-02-28T10:54:55.228Z,66.54
2016-02-28T10:55:55.246Z,66.07
2016-02-28T10:56:55.422Z,65.78
2016-02-28T10:57:55.236Z,66.54
2016-02-28T10:58:55.224Z,66.54
2016-02-28T10:59:55.273Z,66.93
2016-02-28T11:00:55.448Z,66.2
2016-02-28T11:01:55.779Z,66.48
2016-02-28T11:02:55.250Z,66.96
2016-02-28T11:03:55.222Z,65.44
2016-02-28T11:04:55.224Z,65.34
2016-02-28T11:05:55.227Z,65.82
2016-02-28T11:06:55.620Z,66.48
2016-02-28T11:07:55.435Z,66.96
2016-02-28T11:08:55.266Z,66.48
2016-02-28T11:09:55.223Z,66.77
2016-02-28T11:10:56.021Z,66.58
2016-02-28T11:11:55.681Z,66.67
2016-02-28T11:12:55.215Z,67.14
2016-02-28T11:13:55.233Z,66.39
2016-02-28T11:14:55.236Z,66.2
2016-02-28T11:15:55.222Z,66.1
2016-02-28T11:16:55.225Z,66.2
2016-02-28T11:17:55.228Z,66.39
2016-02-28T11:18:55.247Z,66.67
2016-02-28T11:19:55.233Z,66.67
2016-02-28T11:20:55.220Z,66.77
2016-02-28T11:21:55.691Z,66.48
2016-02-28T11:22:55.258Z,66.58
2016-02-28T11:23:55.636Z,66.01
2016-02-28T11:24:55.700Z,66.1
2016-02-28T11:25:55.281Z,66.29
2016-02-28T11:26:55.236Z,65.72
2016-02-28T11:27:55.239Z,65
2016-02-28T11:28:55.898Z,64.24
2016-02-28T11:29:55.542Z,64.9
2016-02-28T11:30:55.232Z,65
2016-02-28T11:31:55.235Z,64.81
2016-02-28T11:32:55.221Z,65.28
2016-02-28T11:33:55.583Z,65.09
2016-02-28T11:34:55.243Z,65
2016-02-28T11:35:55.948Z,64.24
2016-02-28T11:36:55.420Z,65.09
2016-02-28T11:37:55.235Z,63.95
2016-02-28T11:38:55.238Z,62.43
2016-02-28T11:39:55.256Z,63.01
2016-02-28T11:40:55.243Z,62.43
2016-02-28T11:41:55.995Z,62.53
2016-02-28T11:42:55.373Z,62.82
2016-02-28T11:43:55.751Z,63.2
2016-02-28T11:44:55.832Z,63.39
2016-02-28T11:45:55.085Z,64.14
2016-02-28T11:46:55.243Z,64.08
2016-02-28T11:47:55.245Z,64.05
2016-02-28T11:48:55.264Z,63.29
2016-02-28T11:49:55.408Z,62.72
2016-02-28T11:50:55.254Z,62.66
2016-02-28T11:51:55.241Z,61.9
2016-02-28T11:52:55.353Z,62.18
2016-02-28T11:53:55.841Z,62.08
2016-02-28T11:54:55.281Z,61.61
2016-02-28T11:55:55.267Z,61.71
2016-02-28T11:56:55.255Z,61.33
2016-02-28T11:57:55.258Z,59.71
2016-02-28T11:58:55.260Z,61.04
2016-02-28T11:59:55.263Z,61.33
2016-02-28T12:00:55.328Z,61.04
2016-02-28T12:01:54.518Z,59.62
2016-02-28T12:02:55.271Z,59.43
2016-02-28T12:03:55.274Z,58.48
2016-02-28T12:04:55.276Z,58.86
2016-02-28T12:05:55.279Z,58.86
2016-02-28T12:06:56.079Z,58.41
2016-02-28T12:07:55.785Z,58.22
2016-02-28T12:08:55.740Z,58.89
2016-02-28T12:09:55.759Z,59.36
2016-02-28T12:10:55.417Z,59.65
2016-02-28T12:11:55.468Z,58.8
2016-02-28T12:12:55.345Z,57.75
2016-02-28T12:13:55.363Z,55.66
2016-02-28T12:14:55.287Z,56.04
2016-02-28T12:15:55.493Z,55.94
2016-02-28T12:16:55.434Z,56.13
2016-02-28T12:17:55.483Z,56.04
2016-02-28T12:18:55.376Z,55.85
2016-02-28T12:19:55.582Z,55.76
2016-02-28T12:20:55.334Z,55.37
2016-02-28T12:21:55.306Z,56.13
2016-02-28T12:22:55.309Z,55.09
2016-02-28T12:23:55.312Z,54.43
2016-02-28T12:24:55.315Z,53.69
2016-02-28T12:25:55.317Z,53.66
2016-02-28T12:26:55.320Z,52.53
2016-02-28T12:27:55.338Z,53.38
2016-02-28T12:28:55.325Z,52.91
2016-02-28T12:29:55.391Z,52.81
2016-02-28T12:30:55.331Z,53.03
2016-02-28T12:31:55.333Z,52.36
2016-02-28T12:32:55.336Z,53.03
2016-02-28T12:33:55.338Z,52.08
2016-02-28T12:34:55.341Z,51.89
2016-02-28T12:35:55.344Z,52.91
2016-02-28T12:36:55.441Z,53
2016-02-28T12:37:55.349Z,52.36
2016-02-28T12:38:55.383Z,52.14
2016-02-28T12:39:55.371Z,52.14
2016-02-28T12:40:55.357Z,52.14
2016-02-28T12:41:55.376Z,51.95
2016-02-28T12:42:55.379Z,51.86
2016-02-28T12:43:55.381Z,51.95
2016-02-28T12:44:55.368Z,51.76
2016-02-28T12:45:55.401Z,52.14
2016-02-28T12:46:55.373Z,52.14
2016-02-28T12:47:55.376Z,52.24
2016-02-28T12:48:55.410Z,52.05
2016-02-28T12:49:55.382Z,51.48
2016-02-28T12:50:55.384Z,52.62
2016-02-28T12:51:55.387Z,51.95
2016-02-28T12:52:55.406Z,51.76
2016-02-28T12:53:55.409Z,51.86
2016-02-28T12:54:55.411Z,52.53
2016-02-28T12:55:55.413Z,52.43